Time;durP1;ratioP1;P1;durP2;ratioP2;P2;SDS_P1;SDS_P2;PMS_P1;PMS_P2;Temp;Humidity;BMP_temperature;BMP_pressure;BME280_temperature;BME280_humidity;BME280_pressure;Samples;Min_cycle;Max_cycle;Signal;HPM_P1;HPM_P2
2023/03/28 00:00:15;;;;;;;13.38;1.90;;;;;;;3.08;57.32;101957.38;688010;28;1033;-79
2023/03/28 00:00:36;;;;;;;12.68;1.80;;;;;;;3.04;56.82;101940.75;688046;28;1128;-79
2023/03/28 00:01:02;;;;;;;8.57;1.88;;;;;;;3.02;57.19;101937.16;685541;28;863;-79
2023/03/28 00:01:23;;;;;;;4.88;1.90;;;;;;;3.21;57.13;101949.81;685601;28;1148;-79
2023/03/28 00:01:43;;;;;;;6.23;1.90;;;;;;;3.13;57.33;101962.09;686350;28;993;-79
2023/03/28 00:02:04;;;;;;;5.05;1.73;;;;;;;3.19;57.13;101961.66;689325;28;1095;-79
2023/03/28 00:02:25;;;;;;;5.55;1.70;;;;;;;3.20;57.13;101948.03;690838;28;972;-79
2023/03/28 00:02:46;;;;;;;5.90;1.90;;;;;;;3.15;57.10;101949.34;691893;28;1182;-79
2023/03/28 00:03:06;;;;;;;5.97;2.00;;;;;;;3.14;56.97;101939.78;690803;28;1124;-79
2023/03/28 00:03:28;;;;;;;4.25;1.98;;;;;;;3.20;57.09;101949.69;688124;28;1104;-79
2023/03/28 00:03:48;;;;;;;2.08;1.83;;;;;;;3.16;56.91;101951.13;688008;28;1899;-79
2023/03/28 00:04:10;;;;;;;4.47;2.00;;;;;;;3.17;56.70;101958.09;682863;29;1169;-80
2023/03/28 00:04:30;;;;;;;4.95;2.00;;;;;;;3.11;56.61;101936.97;682872;28;1166;-80
2023/03/28 00:04:51;;;;;;;5.78;1.92;;;;;;;3.11;57.24;101948.19;680563;29;1449;-79
2023/03/28 00:05:12;;;;;;;4.00;1.60;;;;;;;3.12;56.76;101949.09;683214;28;1165;-80
2023/03/28 00:05:33;;;;;;;3.70;1.63;;;;;;;3.11;57.34;101947.28;682800;29;1183;-79
2023/03/28 00:06:00;;;;;;;2.83;1.60;;;;;;;3.08;57.19;101953.13;682646;28;1364;-79
2023/03/28 00:06:21;;;;;;;3.45;1.70;;;;;;;3.16;57.17;101958.88;680124;29;1183;-79
2023/03/28 00:06:44;;;;;;;5.10;1.90;;;;;;;3.19;57.27;101961.66;680039;29;1279;-80
2023/03/28 00:07:05;;;;;;;6.07;1.85;;;;;;;3.20;57.34;101958.34;682857;29;1298;-79
2023/03/28 00:07:28;;;;;;;8.30;1.85;;;;;;;3.14;57.00;101953.56;682700;28;926;-79
2023/03/28 00:07:50;;;;;;;8.38;1.90;;;;;;;3.15;57.31;101949.34;682713;29;1401;-79
2023/03/28 00:08:10;;;;;;;7.55;1.90;;;;;;;3.18;56.88;101959.00;682898;29;986;-79
2023/03/28 00:08:31;;;;;;;4.93;1.80;;;;;;;3.19;56.94;101958.22;682839;29;1077;-79
2023/03/28 00:08:52;;;;;;;6.65;1.98;;;;;;;3.20;57.11;101958.34;682695;28;1184;-80
2023/03/28 00:09:13;;;;;;;6.45;1.98;;;;;;;3.17;56.81;101955.50;677539;29;1058;-79
2023/03/28 00:09:33;;;;;;;7.47;1.90;;;;;;;3.20;57.18;101957.41;678176;29;1105;-80
2023/03/28 00:09:56;;;;;;;5.63;2.07;;;;;;;3.16;57.22;101953.72;677526;29;1071;-79
2023/03/28 00:10:16;;;;;;;6.10;1.95;;;;;;;3.17;57.44;101958.09;678114;29;1092;-80
2023/03/28 00:10:37;;;;;;;4.50;1.93;;;;;;;3.19;57.14;101961.66;681279;28;1077;-79
2023/03/28 00:11:02;;;;;;;4.80;1.90;;;;;;;3.16;56.90;101964.03;686023;28;1071;-79
2023/03/28 00:11:23;;;;;;;4.60;1.70;;;;;;;3.22;56.99;101961.94;685365;28;985;-79
2023/03/28 00:11:43;;;;;;;6.60;1.80;;;;;;;3.11;56.71;101957.59;684123;28;1070;-79
2023/03/28 00:12:04;;;;;;;4.72;1.60;;;;;;;3.15;56.80;101964.81;682805;28;1027;-79
2023/03/28 00:12:25;;;;;;;5.20;1.70;;;;;;;3.11;56.87;101957.59;680236;29;1089;-79
2023/03/28 00:12:46;;;;;;;4.30;1.60;;;;;;;3.06;57.36;101959.81;680045;29;891;-79
2023/03/28 00:13:06;;;;;;;4.22;1.70;;;;;;;3.09;57.12;101957.50;680485;29;1086;-79
2023/03/28 00:13:28;;;;;;;5.93;1.90;;;;;;;3.09;57.33;101959.16;680605;29;1211;-80
2023/03/28 00:14:02;;;;;;;6.05;1.83;;;;;;;3.12;57.53;101954.25;683766;28;1044;-79
2023/03/28 00:14:23;;;;;;;8.60;1.92;;;;;;;3.07;57.22;101963.31;684986;28;1049;-79
2023/03/28 00:14:45;;;;;;;8.45;2.00;;;;;;;3.19;57.18;101973.69;685312;28;1318;-79
2023/03/28 00:15:06;;;;;;;7.20;2.08;;;;;;;3.11;57.15;101965.34;685498;28;1012;-79
2023/03/28 00:15:27;;;;;;;6.47;2.00;;;;;;;3.07;57.44;101960.75;685514;28;1160;-79
2023/03/28 00:15:51;;;;;;;5.32;1.80;;;;;;;3.09;57.29;101951.44;688034;28;1137;-79
2023/03/28 00:16:13;;;;;;;3.03;1.60;;;;;;;3.15;57.75;101964.81;685453;28;1030;-79
2023/03/28 00:16:36;;;;;;;1.98;1.42;;;;;;;3.09;57.11;101956.59;685478;28;1167;-79
2023/03/28 00:17:00;;;;;;;4.07;1.65;;;;;;;3.10;57.45;101956.72;682715;29;1073;-79
2023/03/28 00:17:21;;;;;;;7.40;1.90;;;;;;;3.07;57.72;101953.00;682762;29;951;-79
2023/03/28 00:17:42;;;;;;;7.40;2.00;;;;;;;3.06;57.61;101943.47;682565;29;1157;-79
2023/03/28 00:18:04;;;;;;;6.78;2.03;;;;;;;3.12;57.05;101955.16;682827;29;1238;-79
2023/03/28 00:18:25;;;;;;;3.90;2.00;;;;;;;3.12;56.93;101954.25;685470;28;1246;-80
2023/03/28 00:18:49;;;;;;;3.72;1.90;;;;;;;3.00;57.41;101947.34;682655;29;1281;-80
2023/03/28 00:19:14;;;;;;;4.95;1.88;;;;;;;3.07;57.48;101960.75;685436;28;1275;-80
2023/03/28 00:19:39;;;;;;;9.55;1.98;;;;;;;3.10;57.65;101969.63;688081;28;1142;-80
2023/03/28 00:20:01;;;;;;;9.75;2.10;;;;;;;2.96;57.46;101958.22;682727;29;2007;-79
2023/03/28 00:20:22;;;;;;;11.25;2.20;;;;;;;3.04;57.49;101963.97;690338;28;1460;-79
2023/03/28 00:20:42;;;;;;;8.98;2.10;;;;;;;2.96;57.59;101960.81;690648;28;1028;-79
2023/03/28 00:21:07;;;;;;;9.67;2.30;;;;;;;3.05;57.94;101957.16;690802;28;1153;-79
2023/03/28 00:21:34;;;;;;;5.26;2.02;;;;;;;3.13;57.49;101966.38;682765;29;1067;-79
2023/03/28 00:21:56;;;;;;;5.32;1.80;;;;;;;3.01;57.90;101956.88;680006;29;1910;-80
2023/03/28 00:22:16;;;;;;;9.35;1.85;;;;;;;3.11;57.77;101960.19;680090;29;1191;-79
2023/03/28 00:22:37;;;;;;;9.15;2.00;;;;;;;3.17;57.69;101958.09;680010;29;1932;-79
2023/03/28 00:22:58;;;;;;;9.68;2.10;;;;;;;3.13;57.36;101963.81;680156;29;817;-80
2023/03/28 00:23:18;;;;;;;4.10;1.70;;;;;;;3.14;57.39;101965.59;682642;29;1204;-80
2023/03/28 00:23:41;;;;;;;3.72;1.67;;;;;;;3.12;57.56;101951.69;687970;28;1988;-79
2023/03/28 00:24:04;;;;;;;3.45;1.60;;;;;;;3.09;57.65;101954.00;685414;28;1152;-79
2023/03/28 00:24:25;;;;;;;8.18;1.95;;;;;;;3.13;57.59;101966.38;685469;28;1065;-79
2023/03/28 00:24:47;;;;;;;8.05;2.05;;;;;;;3.03;57.65;101967.34;685286;28;1178;-80
2023/03/28 00:25:08;;;;;;;10.43;2.50;;;;;;;3.00;57.77;101956.78;685425;28;1058;-79
2023/03/28 00:25:33;;;;;;;9.75;2.60;;;;;;;3.07;57.44;101961.63;688117;28;1215;-79
2023/03/28 00:25:55;;;;;;;8.90;2.10;;;;;;;3.10;57.75;101971.28;685398;28;1158;-80
2023/03/28 00:26:15;;;;;;;4.90;1.90;;;;;;;3.04;57.39;101960.47;682649;29;1284;-79
2023/03/28 00:26:36;;;;;;;5.73;2.00;;;;;;;3.01;57.52;101969.78;683062;29;1142;-79
2023/03/28 00:26:59;;;;;;;8.00;1.90;;;;;;;3.09;57.54;101972.06;680617;29;929;-79
2023/03/28 00:27:19;;;;;;;7.32;1.98;;;;;;;3.11;57.74;101978.22;683248;29;1101;-79
2023/03/28 00:27:40;;;;;;;8.00;1.80;;;;;;;3.07;57.96;101971.06;683062;29;1358;-79
2023/03/28 00:28:02;;;;;;;5.05;1.85;;;;;;;3.12;57.92;101974.91;683448;29;721;-79
2023/03/28 00:28:22;;;;;;;5.90;1.90;;;;;;;3.15;57.99;101985.44;685908;28;1412;-79
2023/03/28 00:28:46;;;;;;;6.33;2.10;;;;;;;3.14;57.82;101973.34;685922;28;1194;-79
2023/03/28 00:29:09;;;;;;;7.15;2.40;;;;;;;3.12;57.54;101982.66;686017;28;986;-79
2023/03/28 00:29:29;;;;;;;6.07;2.60;;;;;;;3.13;57.82;101979.28;681659;29;1127;-78
2023/03/28 00:29:50;;;;;;;7.30;2.50;;;;;;;3.10;57.71;101972.19;683198;28;1170;-79
2023/03/28 00:30:11;;;;;;;6.30;2.13;;;;;;;3.10;57.46;101969.63;680713;29;1174;-79
2023/03/28 00:30:32;;;;;;;7.20;2.20;;;;;;;3.17;57.34;101978.72;683273;29;1066;-79
2023/03/28 00:31:00;;;;;;;7.80;2.10;;;;;;;3.13;57.67;101971.53;688541;28;1264;-79
2023/03/28 00:31:22;;;;;;;6.68;2.10;;;;;;;3.08;57.42;101968.59;685791;28;1153;-79
2023/03/28 00:31:42;;;;;;;5.07;2.20;;;;;;;3.01;57.50;101967.19;683128;29;1148;-79
2023/03/28 00:32:03;;;;;;;5.30;2.20;;;;;;;3.06;57.64;101964.09;685915;28;1046;-80
2023/03/28 00:32:24;;;;;;;5.40;2.20;;;;;;;3.11;57.41;101978.22;685986;28;1196;-79
2023/03/28 00:32:45;;;;;;;5.20;2.00;;;;;;;3.11;57.53;101980.81;685696;28;1252;-80
2023/03/28 00:33:06;;;;;;;6.00;2.00;;;;;;;3.06;57.92;101971.84;683290;29;1397;-80
2023/03/28 00:33:27;;;;;;;5.72;1.90;;;;;;;2.99;57.33;101973.94;686130;28;1483;-79
2023/03/28 00:33:48;;;;;;;6.00;1.83;;;;;;;2.96;58.04;101978.88;685790;28;1348;-79
2023/03/28 00:34:09;;;;;;;4.93;1.77;;;;;;;2.99;57.98;101973.00;688630;28;1169;-79
2023/03/28 00:34:29;;;;;;;3.92;1.70;;;;;;;2.97;58.00;101975.50;685889;28;1103;-79
2023/03/28 00:34:50;;;;;;;4.03;1.63;;;;;;;3.04;57.99;101991.44;688543;28;1135;-79
2023/03/28 00:35:11;;;;;;;5.32;1.75;;;;;;;2.99;58.16;101979.09;686012;28;1388;-79
2023/03/28 00:35:33;;;;;;;7.55;2.00;;;;;;;3.05;57.87;101978.66;683337;28;1116;-80
2023/03/28 00:35:55;;;;;;;7.30;2.17;;;;;;;3.09;57.94;101987.53;685992;28;1064;-80
2023/03/28 00:36:25;;;;;;;8.20;2.15;;;;;;;3.03;58.03;101969.91;685860;28;1117;-79
2023/03/28 00:36:45;;;;;;;5.50;1.90;;;;;;;3.09;58.13;101982.38;682893;28;1155;-80
2023/03/28 00:37:09;;;;;;;5.90;2.00;;;;;;;3.06;57.98;101971.84;683228;29;1116;-79
2023/03/28 00:37:30;;;;;;;3.30;1.88;;;;;;;3.20;57.99;101978.06;677583;29;1116;-79
2023/03/28 00:37:57;;;;;;;3.67;1.90;;;;;;;3.23;57.61;101973.13;677994;29;1039;-79
2023/03/28 00:38:17;;;;;;;6.00;1.98;;;;;;;3.32;57.05;101970.38;680592;29;1091;-80
2023/03/28 00:38:38;;;;;;;9.02;2.08;;;;;;;3.27;57.12;101970.91;685803;28;1203;-80
2023/03/28 00:39:09;;;;;;;10.77;1.90;;;;;;;3.22;57.40;101982.56;686073;28;813;-80
2023/03/28 00:39:30;;;;;;;11.10;2.10;;;;;;;3.00;57.45;101964.53;686014;28;1163;-79
2023/03/28 00:39:52;;;;;;;8.43;2.00;;;;;;;2.98;57.82;101960.91;683185;29;1360;-79
2023/03/28 00:40:13;;;;;;;10.38;2.30;;;;;;;3.05;57.96;101962.31;683254;29;1163;-79
2023/03/28 00:40:35;;;;;;;9.18;2.25;;;;;;;3.10;57.47;101966.13;680592;29;1252;-80
2023/03/28 00:40:56;;;;;;;6.55;2.03;;;;;;;3.19;57.43;101977.16;680524;29;1376;-79
2023/03/28 00:41:20;;;;;;;5.60;2.10;;;;;;;3.22;57.56;101961.94;685873;28;1363;-79
2023/03/28 00:41:43;;;;;;;5.95;1.98;;;;;;;3.25;57.33;101969.88;685784;28;1070;-80
2023/03/28 00:42:03;;;;;;;7.40;2.05;;;;;;;3.39;57.02;101988.13;685994;28;839;-80
2023/03/28 00:42:24;;;;;;;6.68;2.10;;;;;;;3.28;57.32;101965.00;683339;29;1141;-79
2023/03/28 00:42:47;;;;;;;5.85;1.90;;;;;;;3.41;57.36;101982.31;683122;28;2151;-80
2023/03/28 00:43:12;;;;;;;4.50;1.95;;;;;;;3.36;56.84;101965.56;680718;29;1192;-79
2023/03/28 00:43:44;;;;;;;7.25;1.92;;;;;;;3.35;56.94;101973.19;683162;29;1249;-80
2023/03/28 00:44:44;;;;;;;7.88;2.13;;;;;;;3.37;57.05;101984.53;685966;28;1138;-80
2023/03/28 00:45:08;;;;;;;5.60;2.10;;;;;;;3.27;56.97;101962.28;682672;29;1098;-79
2023/03/28 00:45:29;;;;;;;3.78;2.17;;;;;;;3.25;57.22;101956.09;685101;28;963;-79
2023/03/28 00:45:50;;;;;;;2.93;1.80;;;;;;;3.26;57.23;101969.09;683009;29;1188;-79
2023/03/28 00:46:21;;;;;;;3.03;1.90;;;;;;;3.32;56.80;101975.53;685982;28;1052;-79
2023/03/28 00:46:42;;;;;;;5.32;2.10;;;;;;;3.30;57.05;101969.34;685620;28;1050;-80
2023/03/28 00:47:04;;;;;;;13.65;2.28;;;;;;;3.31;57.51;101966.88;685785;28;1311;-79
2023/03/28 00:47:53;;;;;;;16.08;2.33;;;;;;;3.45;57.27;101986.03;688591;28;1093;-79
2023/03/28 00:48:14;;;;;;;6.10;2.03;;;;;;;3.36;56.99;101964.69;685867;28;1044;-79
2023/03/28 00:48:35;;;;;;;7.85;2.58;;;;;;;3.32;57.05;101963.53;683177;29;1309;-80
2023/03/28 00:49:11;;;;;;;8.23;2.58;;;;;;;3.36;56.74;101969.84;683228;29;875;-79
2023/03/28 00:49:31;;;;;;;7.28;2.15;;;;;;;3.36;56.99;101977.59;685824;28;1215;-79
2023/03/28 00:49:56;;;;;;;6.97;2.25;;;;;;;3.36;56.59;101978.47;685797;28;985;-79
2023/03/28 00:50:20;;;;;;;6.35;2.20;;;;;;;3.38;56.73;101973.44;685899;28;1094;-79
2023/03/28 00:50:45;;;;;;;5.57;2.40;;;;;;;3.30;56.22;101982.25;686300;28;1122;-79
2023/03/28 00:51:07;;;;;;;6.32;2.08;;;;;;;3.20;56.73;101972.91;685986;28;1069;-79
2023/03/28 00:51:32;;;;;;;6.10;2.00;;;;;;;3.15;56.39;101970.84;685848;28;1195;-79
2023/03/28 00:51:58;;;;;;;4.95;1.95;;;;;;;3.19;56.98;101971.09;685847;28;963;-79
2023/03/28 00:52:23;;;;;;;5.75;2.10;;;;;;;3.15;56.77;101969.97;683137;29;1041;-79
2023/03/28 00:52:54;;;;;;;4.00;2.00;;;;;;;3.15;56.96;101975.13;688383;28;1991;-79
2023/03/28 00:53:20;;;;;;;5.18;2.05;;;;;;;3.24;57.05;101991.31;680484;29;1081;-79
2023/03/28 00:53:41;;;;;;;6.00;2.20;;;;;;;3.15;56.71;101976.00;683006;29;1250;-79
2023/03/28 00:54:06;;;;;;;5.50;2.17;;;;;;;3.08;57.09;101972.84;683251;29;1069;-80
2023/03/28 00:54:31;;;;;;;6.90;2.20;;;;;;;3.08;56.93;101971.19;685810;28;1279;-78
2023/03/28 00:54:52;;;;;;;7.53;2.42;;;;;;;3.08;57.02;101971.19;685856;28;923;-79
2023/03/28 00:55:18;;;;;;;6.50;2.33;;;;;;;3.06;57.02;101972.72;688602;28;1093;-80
2023/03/28 00:55:45;;;;;;;5.68;2.17;;;;;;;3.03;57.13;101974.16;680481;29;1178;-80
2023/03/28 00:56:10;;;;;;;5.22;2.10;;;;;;;3.01;57.64;101980.09;683251;29;1228;-80
2023/03/28 00:56:35;;;;;;;3.63;2.33;;;;;;;2.98;57.30;101963.47;683253;29;1122;-80
2023/03/28 00:57:00;;;;;;;3.55;2.30;;;;;;;3.04;57.69;101974.28;680507;29;903;-79
2023/03/28 00:57:21;;;;;;;3.47;1.98;;;;;;;3.04;57.64;101971.72;683069;29;2034;-79
2023/03/28 00:57:45;;;;;;;3.50;2.00;;;;;;;3.14;57.59;101978.50;685845;28;998;-79
2023/03/28 00:58:10;;;;;;;6.25;2.30;;;;;;;3.18;57.89;101984.78;688662;28;1158;-79
2023/03/28 00:58:36;;;;;;;7.35;2.30;;;;;;;3.12;57.53;101974.91;691287;28;1216;-79
2023/03/28 00:58:58;;;;;;;8.80;2.30;;;;;;;3.04;57.00;101960.47;688663;28;1879;-79
2023/03/28 00:59:23;;;;;;;8.15;2.13;;;;;;;3.09;57.60;101979.81;685688;28;1150;-80
2023/03/28 00:59:44;;;;;;;7.10;2.00;;;;;;;3.05;57.57;101967.47;685971;28;839;-80
2023/03/28 01:00:11;;;;;;;6.65;2.03;;;;;;;3.01;57.23;101967.19;688528;28;1178;-80
2023/03/28 01:00:33;;;;;;;7.68;2.45;;;;;;;3.06;57.34;101977.00;683122;28;1276;-80
2023/03/28 01:00:56;;;;;;;8.73;2.50;;;;;;;3.05;56.91;101972.63;683048;28;1274;-80
2023/03/28 01:01:19;;;;;;;10.10;2.25;;;;;;;3.01;57.16;101969.78;688422;28;1206;-80
2023/03/28 01:01:39;;;;;;;8.85;2.20;;;;;;;3.01;57.57;101967.19;685634;28;1179;-80
2023/03/28 01:02:00;;;;;;;6.45;2.22;;;;;;;2.99;57.45;101958.47;685922;28;1492;-80
2023/03/28 01:02:21;;;;;;;6.47;2.22;;;;;;;2.92;57.32;101963.00;682693;29;1242;-80
2023/03/28 01:02:44;;;;;;;6.22;2.42;;;;;;;2.86;57.37;101966.00;683076;29;1089;-79
2023/03/28 01:03:05;;;;;;;6.68;2.38;;;;;;;2.78;57.73;101967.06;683286;29;1069;-79
2023/03/28 01:03:32;;;;;;;6.68;2.42;;;;;;;2.65;57.92;101949.75;683173;29;1002;-79
2023/03/28 01:04:01;;;;;;;5.53;2.45;;;;;;;2.69;58.13;101978.47;680533;29;1954;-80
2023/03/28 01:04:23;;;;;;;5.20;2.38;;;;;;;2.62;58.03;101971.00;683103;29;2122;-79
2023/03/28 01:04:56;;;;;;;6.05;2.25;;;;;;;2.56;58.91;101967.94;683049;29;1017;-79
2023/03/28 01:05:23;;;;;;;7.78;2.20;;;;;;;2.60;58.65;101975.16;685806;28;1134;-79
2023/03/28 01:05:46;;;;;;;7.75;2.03;;;;;;;2.48;58.42;101961.28;685666;28;2028;-79
2023/03/28 01:06:09;;;;;;;7.13;2.10;;;;;;;2.69;58.36;101965.56;688583;28;1422;-80
2023/03/28 01:06:39;;;;;;;6.22;2.00;;;;;;;2.71;58.44;101966.59;688504;28;1176;-79
2023/03/28 01:07:01;;;;;;;6.68;1.98;;;;;;;2.72;58.13;101968.41;685675;28;907;-79
2023/03/28 01:07:35;;;;;;;6.10;2.00;;;;;;;2.56;58.24;101961.13;688616;28;998;-79
2023/03/28 01:08:19;;;;;;;3.70;2.10;;;;;;;2.61;58.33;101976.06;683270;29;947;-80
2023/03/28 01:08:43;;;;;;;4.03;1.73;;;;;;;2.51;58.88;101966.69;680268;29;1147;-80
2023/03/28 01:09:06;;;;;;;4.50;1.90;;;;;;;2.47;58.56;101957.81;682723;29;1924;-79
2023/03/28 01:09:27;;;;;;;7.22;2.00;;;;;;;2.42;58.45;101951.38;685912;28;1485;-80
2023/03/28 01:09:50;;;;;;;7.88;2.20;;;;;;;2.45;59.08;101967.97;685689;28;1317;-79
2023/03/28 01:10:12;;;;;;;7.38;2.30;;;;;;;2.48;58.83;101966.41;683169;29;1103;-79
2023/03/28 01:10:32;;;;;;;5.80;2.35;;;;;;;2.44;59.13;101968.75;680497;29;1218;-79
2023/03/28 01:10:54;;;;;;;6.77;2.57;;;;;;;2.41;59.16;101965.94;680642;29;985;-79
2023/03/28 01:11:15;;;;;;;6.72;2.35;;;;;;;2.36;59.11;101967.25;683041;29;1253;-79
2023/03/28 01:11:39;;;;;;;4.53;2.10;;;;;;;2.36;59.30;101950.88;680443;29;1244;-79
2023/03/28 01:12:01;;;;;;;4.07;1.90;;;;;;;2.31;59.20;101954.00;680479;29;888;-79
2023/03/28 01:12:22;;;;;;;5.55;2.15;;;;;;;2.33;59.17;101956.72;683120;29;1026;-79
2023/03/28 01:12:45;;;;;;;5.80;2.20;;;;;;;2.39;59.26;101975.22;685487;28;1410;-79
2023/03/28 01:13:09;;;;;;;4.82;2.22;;;;;;;2.42;59.28;101967.75;685834;28;1526;-80
2023/03/28 01:13:34;;;;;;;7.32;2.30;;;;;;;2.49;58.64;101965.69;680685;29;1172;-80
2023/03/28 01:13:59;;;;;;;7.15;2.00;;;;;;;2.40;59.20;101958.97;683175;28;906;-79
2023/03/28 01:14:26;;;;;;;6.32;1.92;;;;;;;2.37;59.13;101971.63;683206;29;999;-79
2023/03/28 01:14:47;;;;;;;4.18;1.92;;;;;;;2.34;59.30;101962.75;682916;29;1046;-79
2023/03/28 01:15:09;;;;;;;5.77;2.20;;;;;;;2.31;59.20;101963.38;683289;29;1033;-79
2023/03/28 01:15:40;;;;;;;7.00;2.30;;;;;;;2.26;58.97;101955.28;682950;28;1315;-79
2023/03/28 01:16:02;;;;;;;7.53;2.30;;;;;;;2.26;59.16;101969.88;685959;28;771;-80
2023/03/28 01:16:25;;;;;;;4.47;1.88;;;;;;;2.24;59.05;101967.16;682390;29;1120;-79
2023/03/28 01:16:46;;;;;;;4.22;1.98;;;;;;;2.20;59.54;101953.91;682848;28;1041;-80
2023/03/28 01:17:07;;;;;;;4.38;2.00;;;;;;;2.21;58.81;101960.84;683223;29;1160;-80
2023/03/28 01:17:29;;;;;;;6.10;2.15;;;;;;;2.13;59.20;101953.41;680480;29;1299;-80
2023/03/28 01:17:50;;;;;;;5.68;2.20;;;;;;;2.15;59.75;101962.13;680425;29;1055;-79
2023/03/28 01:18:12;;;;;;;6.82;2.15;;;;;;;2.16;59.46;101963.06;683148;29;1127;-79
2023/03/28 01:18:34;;;;;;;7.50;2.40;;;;;;;2.11;59.36;101957.53;685808;28;1077;-79
2023/03/28 01:18:55;;;;;;;7.10;2.30;;;;;;;2.10;59.74;101952.25;685656;28;1328;-79
2023/03/28 01:19:41;;;;;;;4.90;2.20;;;;;;;2.21;59.45;101971.16;683080;29;1190;-79
2023/03/28 01:20:13;;;;;;;5.07;1.90;;;;;;;2.07;59.46;101957.16;682992;29;1145;-79
2023/03/28 01:21:04;;;;;;;4.40;1.75;;;;;;;2.16;59.28;101974.25;683212;29;1093;-79
2023/03/28 01:22:05;;;;;;;5.30;1.90;;;;;;;2.16;59.66;101973.34;685865;28;1041;-79
2023/03/28 01:22:49;;;;;;;8.30;2.20;;;;;;;2.15;59.65;101976.72;672287;29;1989;-79
2023/03/28 01:23:51;;;;;;;5.57;2.20;;;;;;;2.05;59.57;101967.31;675680;29;1214;-79
2023/03/28 01:24:14;;;;;;;9.18;2.70;;;;;;;2.09;59.51;101982.28;681261;28;1017;-80
2023/03/28 01:24:59;;;;;;;8.75;2.40;;;;;;;2.07;59.80;101975.19;682677;28;1159;-80
2023/03/28 01:25:43;;;;;;;4.85;2.10;;;;;;;1.96;60.05;101954.59;688374;28;1160;-79
2023/03/28 01:26:26;;;;;;;5.75;2.10;;;;;;;2.06;59.81;101976.84;685653;28;1888;-79
2023/03/28 01:26:52;;;;;;;5.22;2.15;;;;;;;1.95;60.33;101962.19;688240;28;1067;-79
2023/03/28 01:27:51;;;;;;;7.88;2.30;;;;;;;2.03;60.46;101979.19;687990;28;1872;-79
2023/03/28 01:28:38;;;;;;;7.65;2.40;;;;;;;1.93;60.41;101959.50;682554;29;1235;-79
2023/03/28 01:29:30;;;;;;;9.45;2.45;;;;;;;2.02;60.61;101974.81;678752;29;844;-79
2023/03/28 01:30:15;;;;;;;9.82;2.70;;;;;;;1.86;60.67;101952.94;681008;29;958;-78
2023/03/28 01:31:16;;;;;;;10.18;2.40;;;;;;;1.97;60.52;101974.44;687491;28;999;-79
2023/03/28 01:32:39;;;;;;;5.82;2.30;;;;;;;1.99;60.17;101974.53;692739;28;950;-80
2023/03/28 01:33:37;;;;;;;6.00;2.10;;;;;;;1.99;60.73;101987.41;677697;29;1204;-80
2023/03/28 01:34:27;;;;;;;4.55;1.98;;;;;;;1.96;60.44;101979.44;669879;29;2014;-78
2023/03/28 01:35:25;;;;;;;6.78;2.45;;;;;;;1.95;60.47;101982.81;677559;29;1242;-79
2023/03/28 01:36:23;;;;;;;7.95;1.80;;;;;;;1.94;60.35;101981.00;677533;29;1273;-79
2023/03/28 01:37:22;;;;;;;8.05;2.20;;;;;;;1.85;60.75;101966.59;679033;28;1280;-79
2023/03/28 01:38:13;;;;;;;6.63;2.00;;;;;;;1.94;60.23;101981.00;677807;29;1001;-79
2023/03/28 01:39:08;;;;;;;6.53;2.17;;;;;;;1.90;60.89;101979.84;676337;29;945;-79
2023/03/28 01:39:41;;;;;;;4.76;2.30;;;;;;;1.86;60.45;101970.06;685365;28;1264;-79
2023/03/28 01:40:14;;;;;;;4.72;2.00;;;;;;;1.94;60.69;101981.88;683260;29;826;-79
2023/03/28 01:41:05;;;;;;;4.80;2.20;;;;;;;1.95;60.77;101983.69;683000;28;1093;-79
2023/03/28 01:41:37;;;;;;;6.60;2.22;;;;;;;1.95;60.25;101983.69;683083;29;1047;-79
2023/03/28 01:42:16;;;;;;;9.43;2.40;;;;;;;1.92;60.42;101965.41;684833;28;919;-79
2023/03/28 01:43:02;;;;;;;5.68;2.20;;;;;;;1.96;60.36;101989.75;685349;28;1093;-79
2023/03/28 01:43:42;;;;;;;8.15;2.05;;;;;;;1.94;60.69;101986.16;683051;29;1318;-79
2023/03/28 01:44:27;;;;;;;9.30;2.25;;;;;;;1.90;60.77;101985.88;685807;28;1062;-79
2023/03/28 01:44:53;;;;;;;5.97;2.10;;;;;;;1.85;60.43;101976.91;685508;28;1347;-80
2023/03/28 01:45:22;;;;;;;6.47;2.17;;;;;;;1.78;60.87;101969.44;681613;29;1457;-80
2023/03/28 01:45:59;;;;;;;9.50;2.40;;;;;;;1.74;60.17;101969.94;683011;28;1045;-80
2023/03/28 01:46:29;;;;;;;7.57;2.42;;;;;;;1.77;60.49;101972.78;680414;29;1011;-81
2023/03/28 01:47:17;;;;;;;7.78;2.30;;;;;;;1.87;60.22;101992.44;680072;29;1219;-81
2023/03/28 01:47:50;;;;;;;11.20;2.42;;;;;;;1.83;60.66;101980.09;680305;29;1260;-81
2023/03/28 01:48:16;;;;;;;8.70;2.60;;;;;;;1.80;60.73;101988.47;677794;29;1186;-81
2023/03/28 01:49:19;;;;;;;8.75;2.60;;;;;;;1.69;60.94;101966.97;678562;29;1041;-81
2023/03/28 01:49:56;;;;;;;3.05;2.10;;;;;;;1.77;60.53;101989.09;681139;28;1062;-81
2023/03/28 01:50:30;;;;;;;5.07;2.30;;;;;;;1.70;60.72;101973.03;682618;29;1038;-81
2023/03/28 01:51:14;;;;;;;8.40;1.92;;;;;;;1.75;60.51;101989.75;685750;28;899;-81
2023/03/28 01:51:47;;;;;;;8.63;2.17;;;;;;;1.77;61.06;101986.53;685813;28;994;-81
2023/03/28 01:52:34;;;;;;;6.20;2.42;;;;;;;1.66;60.75;101970.97;685796;28;1148;-81
2023/03/28 01:53:42;;;;;;;4.53;2.20;;;;;;;1.77;60.71;101983.97;683217;28;863;-81
2023/03/28 01:54:09;;;;;;;7.22;2.26;;;;;;;1.73;60.95;101978.44;682134;28;1154;-81
2023/03/28 01:55:06;;;;;;;8.60;2.22;;;;;;;1.78;60.96;101990.03;685943;28;1049;-81
2023/03/28 01:55:36;;;;;;;6.60;2.10;;;;;;;1.65;60.81;101971.75;688630;28;1079;-81
2023/03/28 01:56:14;;;;;;;5.70;2.33;;;;;;;1.72;61.11;101979.22;692351;28;835;-81
2023/03/28 01:56:41;;;;;;;4.68;2.08;;;;;;;1.70;60.78;101976.50;691301;28;1107;-81
2023/03/28 01:57:13;;;;;;;4.63;2.10;;;;;;;1.72;60.88;101979.22;690999;28;2034;-81
2023/03/28 01:57:44;;;;;;;5.96;2.02;;;;;;;1.74;60.94;101983.72;691003;28;2030;-80
2023/03/28 01:58:11;;;;;;;7.70;2.10;;;;;;;1.70;60.91;101984.22;688403;28;1036;-80
2023/03/28 01:58:45;;;;;;;7.43;2.47;;;;;;;1.76;61.09;101988.97;685665;28;1017;-81
2023/03/28 01:59:15;;;;;;;5.93;2.20;;;;;;;1.66;60.76;101970.97;682979;29;1096;-81
2023/03/28 02:00:11;;;;;;;7.90;2.03;;;;;;;1.77;61.10;101994.25;680108;29;1298;-80
2023/03/28 02:01:12;;;;;;;5.97;2.42;;;;;;;1.62;61.09;101962.09;682507;29;1044;-81
2023/03/28 02:01:44;;;;;;;6.30;2.40;;;;;;;1.62;60.64;101970.72;683077;29;1097;-81
2023/03/28 02:02:33;;;;;;;6.32;2.20;;;;;;;1.68;60.55;101977.13;681877;29;1167;-82
2023/03/28 02:03:17;;;;;;;9.60;2.33;;;;;;;1.62;60.98;101970.72;682333;29;1116;-81
2023/03/28 02:03:53;;;;;;;6.80;2.30;;;;;;;1.57;60.75;101969.44;679987;28;2035;-81
2023/03/28 02:04:35;;;;;;;6.65;2.38;;;;;;;1.57;60.92;101968.50;685636;28;1109;-81
2023/03/28 02:04:59;;;;;;;8.68;2.38;;;;;;;1.59;61.23;101970.44;683265;29;912;-80
2023/03/28 02:05:22;;;;;;;8.13;2.20;;;;;;;1.62;61.36;101975.88;680314;29;1032;-81
2023/03/28 02:05:47;;;;;;;6.15;2.00;;;;;;;1.65;61.11;101984.63;682889;29;941;-81
2023/03/28 02:06:11;;;;;;;6.38;2.00;;;;;;;1.67;61.14;101991.69;683040;29;971;-81
2023/03/28 02:06:37;;;;;;;7.72;2.28;;;;;;;1.57;61.11;101969.44;685749;28;1085;-81
2023/03/28 02:07:02;;;;;;;8.50;2.25;;;;;;;1.56;61.07;101967.63;688395;28;807;-81
2023/03/28 02:07:32;;;;;;;7.95;2.30;;;;;;;1.58;61.03;101967.78;682988;29;1140;-81
2023/03/28 02:08:03;;;;;;;4.43;2.10;;;;;;;1.57;60.98;101969.44;687048;28;816;-81
2023/03/28 02:08:43;;;;;;;6.15;2.00;;;;;;;1.60;61.23;101973.94;685677;28;919;-81
2023/03/28 02:09:26;;;;;;;5.50;2.10;;;;;;;1.59;61.21;101979.84;686988;28;1199;-81
2023/03/28 02:10:05;;;;;;;4.80;1.90;;;;;;;1.66;60.64;101966.72;688452;28;1255;-81
2023/03/28 02:10:58;;;;;;;6.50;2.20;;;;;;;1.06;61.67;101977.97;685545;28;824;-81
2023/03/28 02:11:40;;;;;;;10.32;2.60;;;;;;;0.96;62.46;101976.28;690477;28;1340;-82
2023/03/28 02:12:32;;;;;;;6.38;2.35;;;;;;;0.82;63.16;101967.38;690387;28;1252;-81
2023/03/28 02:13:08;;;;;;;6.22;2.40;;;;;;;0.74;63.48;101953.88;688396;28;1112;-81
2023/03/28 02:14:01;;;;;;;6.07;2.33;;;;;;;0.71;63.53;101963.88;685431;28;2002;-81
2023/03/28 02:14:42;;;;;;;10.07;2.60;;;;;;;0.64;63.58;101964.09;685566;28;1021;-81
2023/03/28 02:15:31;;;;;;;7.43;2.45;;;;;;;0.61;63.55;101966.41;688032;28;1209;-81
2023/03/28 02:16:12;;;;;;;6.32;2.80;;;;;;;0.63;64.08;101970.91;685529;28;1157;-81
2023/03/28 02:17:00;;;;;;;6.68;2.55;;;;;;;0.64;64.26;101971.81;680054;29;874;-81
2023/03/28 02:18:08;;;;;;;6.80;2.22;;;;;;;0.62;63.96;101974.25;686406;28;1183;-81
2023/03/28 02:18:48;;;;;;;5.32;2.45;;;;;;;0.52;64.22;101962.25;689564;28;1248;-81
2023/03/28 02:19:37;;;;;;;4.15;2.20;;;;;;;0.61;64.07;101982.69;688265;28;1060;-81